Time;durP1;ratioP1;P1;durP2;ratioP2;P2;SDS_P1;SDS_P2;PMS_P1;PMS_P2;Temp;Humidity;BMP_temperature;BMP_pressure;BME280_temperature;BME280_humidity;BME280_pressure;Samples;Min_cycle;Max_cycle;Signal;HPM_P1;HPM_P2
2022/06/27 00:01:18;;;;;;;9.75;6.13;;;18.60;99.90;;;;;;4822528;29;20073;-66
2022/06/27 00:03:44;;;;;;;9.27;6.00;;;18.50;99.90;;;;;;4806145;29;20054;-65
2022/06/27 00:06:09;;;;;;;9.10;6.20;;;18.60;99.90;;;;;;4806364;29;20438;-65
2022/06/27 00:08:35;;;;;;;8.52;6.10;;;18.50;99.90;;;;;;4822597;29;20058;-65
2022/06/27 00:11:02;;;;;;;8.30;6.15;;;18.50;99.90;;;;;;4822278;29;20046;-66
2022/06/27 00:13:28;;;;;;;7.88;6.15;;;18.50;99.90;;;;;;4807741;29;20050;-65
2022/06/27 00:15:53;;;;;;;8.93;6.32;;;18.50;99.90;;;;;;4809452;29;20054;-65
2022/06/27 00:18:19;;;;;;;11.65;6.53;;;18.50;99.90;;;;;;4825855;29;20058;-66
2022/06/27 00:20:45;;;;;;;6.63;5.93;;;18.50;99.90;;;;;;4794634;29;20508;-66
2022/06/27 00:23:11;;;;;;;9.75;6.35;;;18.50;99.90;;;;;;4810027;29;20111;-64
2022/06/27 00:25:36;;;;;;;8.38;5.90;;;18.50;99.90;;;;;;4794664;29;20058;-64
2022/06/27 00:28:02;;;;;;;9.38;6.10;;;18.40;99.90;;;;;;4825318;29;20048;-65
2022/06/27 00:30:28;;;;;;;8.20;6.40;;;18.40;99.90;;;;;;4809394;29;20140;-64
2022/06/27 00:32:54;;;;;;;8.13;6.78;;;18.40;99.90;;;;;;4809238;29;20057;-65
2022/06/27 00:35:20;;;;;;;10.05;6.72;;;18.40;99.90;;;;;;4809532;29;20047;-65
2022/06/27 00:37:46;;;;;;;7.85;6.68;;;18.40;99.90;;;;;;4794023;29;20577;-65
2022/06/27 00:40:12;;;;;;;10.73;7.03;;;18.40;99.90;;;;;;4809513;29;20120;-65
2022/06/27 00:42:37;;;;;;;9.40;7.53;;;18.30;99.90;;;;;;4825989;29;20102;-64
2022/06/27 00:45:04;;;;;;;10.30;8.07;;;18.30;99.90;;;;;;4809266;29;20059;-66
2022/06/27 00:47:31;;;;;;;8.13;6.90;;;18.30;99.90;;;;;;4809169;29;20065;-65
2022/06/27 00:49:56;;;;;;;9.93;7.30;;;18.20;99.90;;;;;;4824695;29;20077;-66
2022/06/27 00:52:22;;;;;;;9.23;7.75;;;18.20;99.90;;;;;;4825492;29;20493;-66
2022/06/27 00:54:48;;;;;;;9.98;7.55;;;18.20;99.90;;;;;;4793950;29;20464;-66
2022/06/27 00:57:15;;;;;;;9.15;7.28;;;18.20;99.90;;;;;;4809088;29;20055;-66
2022/06/27 00:59:41;;;;;;;11.52;7.75;;;18.20;99.90;;;;;;4825096;29;20054;-67
2022/06/27 01:02:08;;;;;;;9.60;7.47;;;18.20;99.90;;;;;;4808599;29;20058;-65
2022/06/27 01:04:36;;;;;;;10.32;7.43;;;18.20;99.90;;;;;;4809259;29;20103;-66
2022/06/27 01:07:02;;;;;;;8.55;6.93;;;18.20;99.90;;;;;;4808671;29;20061;-64
2022/06/27 01:09:28;;;;;;;11.77;7.63;;;18.20;99.90;;;;;;4808801;29;20047;-64
2022/06/27 01:11:54;;;;;;;9.05;7.30;;;18.20;99.90;;;;;;4808593;29;20053;-66
2022/06/27 01:14:20;;;;;;;9.77;7.38;;;18.30;99.90;;;;;;4825071;29;20057;-66
2022/06/27 01:16:46;;;;;;;10.70;7.35;;;18.20;99.90;;;;;;4808727;29;20081;-65
2022/06/27 01:19:14;;;;;;;11.57;8.00;;;18.20;99.90;;;;;;4793511;29;20058;-65
2022/06/27 01:21:49;;;;;;;9.73;8.05;;;18.20;99.90;;;;;;4824825;29;20138;-67
2022/06/27 01:24:15;;;;;;;11.93;9.15;;;18.10;99.90;;;;;;4808069;29;20458;-66
2022/06/27 01:26:43;;;;;;;13.13;9.13;;;18.10;99.90;;;;;;4824537;29;20054;-65
2022/06/27 01:29:09;;;;;;;13.90;9.13;;;18.10;99.90;;;;;;4792893;29;20071;-66
2022/06/27 01:31:36;;;;;;;12.82;8.95;;;18.00;99.90;;;;;;4824722;29;20054;-65
2022/06/27 01:34:02;;;;;;;13.25;9.52;;;18.00;99.90;;;;;;4807784;29;20620;-65
2022/06/27 01:36:42;;;;;;;12.75;8.90;;;18.00;99.90;;;;;;4808515;29;20099;-66
2022/06/27 01:39:20;;;;;;;11.57;8.38;;;18.00;99.90;;;;;;4823444;29;20043;-65
2022/06/27 01:41:57;;;;;;;11.45;8.98;;;18.10;99.90;;;;;;4792874;29;20065;-66
2022/06/27 01:44:26;;;;;;;9.55;8.27;;;18.10;99.90;;;;;;4824559;29;20062;-65
2022/06/27 01:47:00;;;;;;;11.60;8.25;;;18.10;99.90;;;;;;4824648;29;20077;-66
2022/06/27 01:49:28;;;;;;;9.88;8.27;;;18.10;99.90;;;;;;4808287;29;20565;-66
2022/06/27 01:51:55;;;;;;;10.48;8.73;;;18.10;99.90;;;;;;4807769;29;20054;-69
2022/06/27 01:54:22;;;;;;;10.85;7.88;;;18.00;99.90;;;;;;4824282;29;20054;-66
2022/06/27 01:56:49;;;;;;;12.45;8.80;;;18.00;99.90;;;;;;4808311;29;20042;-65
2022/06/27 01:59:17;;;;;;;11.27;8.07;;;18.00;99.90;;;;;;4807985;29;20089;-64
2022/06/27 02:01:44;;;;;;;10.65;8.88;;;18.00;99.90;;;;;;4807737;29;20058;-65
2022/06/27 02:04:12;;;;;;;11.07;7.75;;;18.00;99.90;;;;;;4792720;29;20054;-65
2022/06/27 02:06:39;;;;;;;11.73;8.40;;;17.90;99.90;;;;;;4808054;29;20065;-66
2022/06/27 02:09:06;;;;;;;10.13;8.13;;;18.00;99.90;;;;;;4807914;29;20400;-66
2022/06/27 02:11:33;;;;;;;12.25;9.15;;;18.00;99.90;;;;;;4823963;29;20488;-66
2022/06/27 02:13:59;;;;;;;9.65;8.60;;;18.00;99.90;;;;;;4823535;29;20054;-69
2022/06/27 02:16:26;;;;;;;12.20;8.32;;;18.00;99.90;;;;;;4807960;29;20061;-66
2022/06/27 02:18:52;;;;;;;11.00;8.77;;;18.10;99.90;;;;;;4807522;29;20066;-65
2022/06/27 02:21:21;;;;;;;10.32;8.55;;;18.10;99.90;;;;;;4807368;29;20046;-66
2022/06/27 02:23:48;;;;;;;11.85;9.07;;;18.10;99.90;;;;;;4822728;29;20430;-66
2022/06/27 02:26:15;;;;;;;10.10;8.95;;;18.10;99.90;;;;;;4823552;29;20107;-65
2022/06/27 02:28:43;;;;;;;12.80;8.48;;;18.10;99.90;;;;;;4823722;29;20065;-65
2022/06/27 02:31:10;;;;;;;9.77;8.38;;;18.20;99.90;;;;;;4822432;29;20055;-66
2022/06/27 02:33:38;;;;;;;12.27;9.60;;;18.10;99.90;;;;;;4807747;29;20458;-66
2022/06/27 02:36:05;;;;;;;11.55;8.60;;;18.10;99.90;;;;;;4822759;29;20507;-65
2022/06/27 02:38:32;;;;;;;11.25;8.65;;;18.10;99.90;;;;;;4807791;29;20058;-66
2022/06/27 02:40:59;;;;;;;10.93;8.95;;;18.00;99.90;;;;;;4823760;29;20058;-65
2022/06/27 02:43:27;;;;;;;10.98;9.02;;;18.00;99.90;;;;;;4807096;29;20054;-66
2022/06/27 02:45:54;;;;;;;11.90;8.65;;;18.00;99.90;;;;;;4823661;29;20454;-66
2022/06/27 02:48:22;;;;;;;11.57;9.30;;;18.00;99.90;;;;;;4807037;29;20046;-66
2022/06/27 02:50:54;;;;;;;10.80;8.93;;;18.00;99.90;;;;;;4807298;29;20172;-66
2022/06/27 02:53:25;;;;;;;11.38;8.60;;;18.00;99.90;;;;;;4823196;29;20061;-65
2022/06/27 02:55:54;;;;;;;12.50;9.10;;;17.90;99.90;;;;;;4791781;29;20054;-66
2022/06/27 02:58:26;;;;;;;11.00;9.05;;;17.90;99.90;;;;;;4823071;29;20111;-66
2022/06/27 03:00:54;;;;;;;10.55;9.18;;;17.90;99.90;;;;;;4807279;29;20072;-65
2022/06/27 03:03:21;;;;;;;12.95;9.38;;;17.80;99.90;;;;;;4806801;29;20060;-65
2022/06/27 03:06:06;;;;;;;9.98;9.00;;;17.80;99.90;;;;;;4823122;29;20085;-65
2022/06/27 03:08:36;;;;;;;10.90;9.75;;;17.70;99.90;;;;;;4823327;29;20554;-67
2022/06/27 03:11:02;;;;;;;14.45;10.10;;;17.70;99.90;;;;;;4807099;29;20106;-65
2022/06/27 03:13:27;;;;;;;12.02;10.35;;;17.70;99.90;;;;;;4822666;29;20081;-66
2022/06/27 03:15:53;;;;;;;12.95;10.73;;;17.70;99.90;;;;;;4823232;29;20057;-64
2022/06/27 03:18:18;;;;;;;13.27;11.00;;;17.60;99.90;;;;;;4822944;29;20460;-66
2022/06/27 03:20:44;;;;;;;14.07;11.18;;;17.60;99.90;;;;;;4806980;29;20137;-65
2022/06/27 03:23:10;;;;;;;13.88;11.63;;;17.60;99.90;;;;;;4822840;29;20058;-65
2022/06/27 03:25:36;;;;;;;13.27;11.30;;;17.50;99.90;;;;;;4823051;29;20386;-65
2022/06/27 03:28:02;;;;;;;15.80;12.65;;;17.50;99.90;;;;;;4806719;29;20057;-66
2022/06/27 03:30:27;;;;;;;13.48;12.02;;;17.50;99.90;;;;;;4822844;29;20112;-66
2022/06/27 03:32:53;;;;;;;14.30;12.80;;;17.50;99.90;;;;;;4791845;29;20078;-66
2022/06/27 03:35:19;;;;;;;14.00;12.30;;;17.50;99.90;;;;;;4822690;29;20057;-65
2022/06/27 03:37:44;;;;;;;14.45;12.60;;;17.50;99.90;;;;;;4806692;29;20107;-65
2022/06/27 03:40:10;;;;;;;15.32;13.32;;;17.50;99.90;;;;;;4806523;29;20054;-67
2022/06/27 03:42:36;;;;;;;14.80;13.23;;;17.50;99.90;;;;;;4822924;29;20062;-66
2022/06/27 03:45:02;;;;;;;16.98;14.20;;;17.40;99.90;;;;;;4822896;29;20050;-65
2022/06/27 03:47:28;;;;;;;15.55;13.77;;;17.40;99.90;;;;;;4791510;29;20043;-64
2022/06/27 03:50:02;;;;;;;16.52;14.15;;;17.40;99.90;;;;;;4795098;29;20191;-66
2022/06/27 03:52:29;;;;;;;15.48;13.20;;;17.40;99.90;;;;;;4826277;29;20634;-65
2022/06/27 03:54:55;;;;;;;16.23;14.32;;;17.40;99.90;;;;;;4810035;29;20102;-65
2022/06/27 03:57:20;;;;;;;17.52;14.00;;;17.40;99.90;;;;;;4809401;29;20508;-65
2022/06/27 03:59:46;;;;;;;17.67;14.25;;;17.40;99.90;;;;;;4810314;29;20050;-66
2022/06/27 04:02:13;;;;;;;17.08;13.45;;;17.30;99.90;;;;;;4825857;29;20104;-68
2022/06/27 04:04:39;;;;;;;14.70;13.10;;;17.30;99.90;;;;;;4826082;29;20054;-66
2022/06/27 04:07:04;;;;;;;13.25;11.88;;;17.30;99.90;;;;;;4826029;29;20073;-65
2022/06/27 04:09:30;;;;;;;15.15;12.23;;;17.30;99.90;;;;;;4794757;29;20284;-65
2022/06/27 04:11:56;;;;;;;15.48;12.30;;;17.20;99.90;;;;;;4826366;29;20070;-68
2022/06/27 04:14:22;;;;;;;14.77;11.32;;;17.20;99.90;;;;;;4825916;29;20050;-65
2022/06/27 04:16:47;;;;;;;14.43;11.60;;;17.20;99.90;;;;;;4809966;29;20104;-66
2022/06/27 04:19:13;;;;;;;13.05;11.65;;;17.20;99.90;;;;;;4809508;29;20050;-70
2022/06/27 04:21:39;;;;;;;12.52;11.23;;;17.20;99.90;;;;;;4809720;29;20057;-64
2022/06/27 04:24:05;;;;;;;14.63;11.32;;;17.30;99.90;;;;;;4825911;29;20126;-66
2022/06/27 04:26:30;;;;;;;12.00;10.80;;;17.30;99.90;;;;;;4794358;29;20050;-64
2022/06/27 04:28:56;;;;;;;11.57;10.27;;;17.30;99.90;;;;;;4824376;29;20412;-67
2022/06/27 04:31:22;;;;;;;11.55;10.35;;;17.30;99.90;;;;;;4794440;29;20065;-65
2022/06/27 04:33:48;;;;;;;10.82;9.73;;;17.30;99.90;;;;;;4825823;29;20058;-65
2022/06/27 04:36:14;;;;;;;12.57;10.40;;;17.30;99.90;;;;;;4794555;29;20058;-66
2022/06/27 04:38:40;;;;;;;12.50;9.77;;;17.30;99.90;;;;;;4809166;29;20120;-65
2022/06/27 04:41:06;;;;;;;11.57;10.23;;;17.30;99.90;;;;;;4809402;29;20054;-65
2022/06/27 04:43:35;;;;;;;11.48;9.63;;;17.30;99.90;;;;;;4808919;29;20166;-65
2022/06/27 04:46:02;;;;;;;10.63;9.45;;;17.30;99.90;;;;;;4809719;29;20054;-66
2022/06/27 04:48:29;;;;;;;10.95;9.25;;;17.30;99.90;;;;;;4793737;29;20416;-65
2022/06/27 04:50:57;;;;;;;9.20;8.10;;;17.30;99.90;;;;;;4825372;29;20062;-64
2022/06/27 04:53:22;;;;;;;9.40;8.35;;;17.40;99.90;;;;;;4824985;29;20057;-65
2022/06/27 04:55:49;;;;;;;10.20;9.05;;;17.30;99.90;;;;;;4779278;29;20042;-65
2022/06/27 04:58:15;;;;;;;11.07;8.80;;;17.30;99.90;;;;;;4825237;29;20061;-65
2022/06/27 05:00:41;;;;;;;11.02;9.00;;;17.30;99.90;;;;;;4824299;29;20054;-66
2022/06/27 05:03:08;;;;;;;11.25;8.55;;;17.30;99.90;;;;;;4808622;29;20059;-66
2022/06/27 05:05:33;;;;;;;10.02;7.60;;;17.40;99.90;;;;;;4793856;29;20061;-65
2022/06/27 05:08:00;;;;;;;9.35;7.47;;;17.40;99.90;;;;;;4825179;29;20117;-66
2022/06/27 05:10:27;;;;;;;8.80;7.60;;;17.30;99.90;;;;;;4824472;29;20054;-66
2022/06/27 05:12:53;;;;;;;8.32;6.47;;;17.30;99.90;;;;;;4808817;29;20370;-65
2022/06/27 05:15:19;;;;;;;7.43;6.60;;;17.40;99.90;;;;;;4825077;29;20050;-65
2022/06/27 05:17:44;;;;;;;8.20;5.85;;;17.40;99.90;;;;;;4793475;29;20115;-65
2022/06/27 05:20:10;;;;;;;7.05;6.35;;;17.40;99.90;;;;;;4808647;29;20053;-65
2022/06/27 05:22:36;;;;;;;8.23;6.22;;;17.40;99.90;;;;;;4824143;29;20133;-65
2022/06/27 05:25:02;;;;;;;6.32;5.60;;;17.50;99.90;;;;;;4824720;29;20149;-66
2022/06/27 05:27:28;;;;;;;6.57;5.25;;;17.50;99.90;;;;;;4824281;29;20055;-65
2022/06/27 05:29:54;;;;;;;5.55;4.65;;;17.50;99.90;;;;;;4824428;29;20508;-65
2022/06/27 05:32:20;;;;;;;7.15;5.03;;;17.50;99.90;;;;;;4808481;29;20068;-66
2022/06/27 05:34:45;;;;;;;7.63;4.95;;;17.50;99.90;;;;;;4793029;29;20042;-66
2022/06/27 05:37:11;;;;;;;8.43;5.10;;;17.50;99.90;;;;;;4808496;29;20093;-66
2022/06/27 05:39:37;;;;;;;5.00;4.40;;;17.50;99.90;;;;;;4807911;29;20133;-66
2022/06/27 05:42:04;;;;;;;5.03;3.88;;;17.50;99.90;;;;;;4824271;29;20061;-66
2022/06/27 05:44:30;;;;;;;4.30;3.20;;;17.50;99.90;;;;;;4824006;29;20047;-66
2022/06/27 05:46:59;;;;;;;4.47;3.20;;;17.50;99.90;;;;;;4808145;29;20194;-65
2022/06/27 05:49:25;;;;;;;4.78;3.17;;;17.50;99.90;;;;;;4808100;29;20397;-68
2022/06/27 05:51:52;;;;;;;4.70;3.40;;;17.50;99.90;;;;;;4807824;29;20050;-65
2022/06/27 05:54:19;;;;;;;4.28;2.97;;;17.50;99.90;;;;;;4824237;29;20046;-68
2022/06/27 05:56:44;;;;;;;3.28;2.90;;;17.60;99.90;;;;;;4823973;29;20061;-64
2022/06/27 05:59:12;;;;;;;4.70;2.55;;;17.60;99.90;;;;;;4793258;29;20050;-65
2022/06/27 06:01:40;;;;;;;5.15;4.13;;;17.70;99.90;;;;;;4807775;29;20054;-66
2022/06/27 06:04:06;;;;;;;3.60;2.80;;;18.00;99.90;;;;;;4807448;29;20524;-67
2022/06/27 06:06:32;;;;;;;5.53;3.45;;;18.20;99.90;;;;;;4807483;29;20061;-66
2022/06/27 06:08:59;;;;;;;3.00;2.47;;;18.30;99.90;;;;;;4808015;29;20164;-65
2022/06/27 06:11:25;;;;;;;2.60;2.17;;;18.40;99.90;;;;;;4823282;29;20055;-65
2022/06/27 06:13:52;;;;;;;3.35;2.55;;;18.30;99.90;;;;;;4792180;29;20061;-64
2022/06/27 06:16:19;;;;;;;4.30;2.47;;;18.30;99.90;;;;;;4824055;29;20077;-65
2022/06/27 06:18:50;;;;;;;4.57;2.58;;;18.40;99.90;;;;;;4792411;29;20050;-69
2022/06/27 06:21:17;;;;;;;2.90;2.22;;;18.40;99.90;;;;;;4823828;29;20050;-66
2022/06/27 06:23:42;;;;;;;4.57;2.58;;;18.40;99.90;;;;;;4807466;29;20097;-64
2022/06/27 06:26:08;;;;;;;3.30;2.20;;;18.30;99.90;;;;;;4823731;29;20442;-67
2022/06/27 06:28:35;;;;;;;2.88;2.33;;;18.30;99.90;;;;;;4807218;29;20466;-65
2022/06/27 06:31:01;;;;;;;4.00;2.65;;;18.30;99.90;;;;;;4823740;29;20059;-66
2022/06/27 06:33:29;;;;;;;3.45;2.80;;;18.30;99.90;;;;;;4807566;29;20122;-64
2022/06/27 06:35:55;;;;;;;4.68;2.80;;;18.30;99.90;;;;;;4807150;29;20057;-65
2022/06/27 06:38:22;;;;;;;4.53;2.58;;;18.30;99.90;;;;;;4823786;29;20065;-66
2022/06/27 06:40:47;;;;;;;3.67;2.47;;;18.20;99.90;;;;;;4806921;29;20058;-66
2022/06/27 06:43:13;;;;;;;3.13;2.30;;;18.20;99.90;;;;;;4823649;29;20064;-67
2022/06/27 06:45:39;;;;;;;5.07;2.17;;;18.20;99.90;;;;;;4791935;29;20050;-68
2022/06/27 06:48:05;;;;;;;3.15;2.20;;;18.20;99.90;;;;;;4807403;29;20061;-66
2022/06/27 06:50:31;;;;;;;3.53;2.45;;;18.20;99.90;;;;;;4807462;29;20054;-68
2022/06/27 06:52:58;;;;;;;4.00;2.40;;;18.10;99.90;;;;;;4823176;29;20054;-67
2022/06/27 06:55:24;;;;;;;4.75;2.42;;;18.10;99.90;;;;;;4823625;29;20378;-67
2022/06/27 06:57:51;;;;;;;3.33;2.40;;;18.20;99.90;;;;;;4807057;29;20106;-67
2022/06/27 07:00:18;;;;;;;3.42;2.20;;;18.20;99.90;;;;;;4823542;29;20050;-67
2022/06/27 07:02:45;;;;;;;4.63;2.58;;;18.20;99.90;;;;;;4806860;29;20518;-66
2022/06/27 07:05:11;;;;;;;2.92;2.33;;;18.20;99.90;;;;;;4823283;29;20054;-67
2022/06/27 07:07:44;;;;;;;3.45;2.55;;;18.20;99.90;;;;;;4806943;29;20061;-66
2022/06/27 07:10:14;;;;;;;3.83;2.72;;;18.20;99.90;;;;;;4807346;29;20187;-66
2022/06/27 07:12:41;;;;;;;3.70;2.70;;;18.30;99.90;;;;;;4823102;29;20050;-66
2022/06/27 07:15:10;;;;;;;3.50;2.40;;;18.20;99.90;;;;;;4806485;29;20065;-67
2022/06/27 07:17:45;;;;;;;4.85;2.83;;;18.20;99.90;;;;;;4822720;29;20383;-69
2022/06/27 07:20:13;;;;;;;5.90;2.88;;;18.30;99.90;;;;;;4807076;29;20087;-68
2022/06/27 07:22:40;;;;;;;3.78;2.90;;;18.30;99.90;;;;;;4822811;29;20129;-67
2022/06/27 07:25:07;;;;;;;3.63;2.90;;;18.30;99.90;;;;;;4806753;29;20046;-66
2022/06/27 07:27:34;;;;;;;3.58;2.90;;;18.30;99.90;;;;;;4822265;29;20058;-67
2022/06/27 07:30:02;;;;;;;3.78;3.03;;;18.40;99.90;;;;;;4822840;29;20062;-71
2022/06/27 07:32:29;;;;;;;3.80;2.85;;;18.30;99.90;;;;;;4823171;29;20056;-67
2022/06/27 07:34:57;;;;;;;4.22;2.65;;;18.30;99.90;;;;;;4822664;29;20089;-67
2022/06/27 07:37:23;;;;;;;4.20;2.80;;;18.20;99.90;;;;;;4806783;29;20141;-65
2022/06/27 07:39:49;;;;;;;5.10;2.90;;;18.20;99.90;;;;;;4822425;29;20157;-66
2022/06/27 07:42:15;;;;;;;4.00;2.85;;;18.20;99.90;;;;;;4823020;29;20477;-66
2022/06/27 07:44:41;;;;;;;5.18;2.90;;;18.20;99.90;;;;;;4822570;29;20257;-69
2022/06/27 07:47:08;;;;;;;4.20;3.22;;;18.20;99.90;;;;;;4806601;29;20089;-65
2022/06/27 07:49:33;;;;;;;3.70;2.90;;;18.20;99.90;;;;;;4823048;29;20054;-67
2022/06/27 07:52:00;;;;;;;3.63;2.97;;;18.20;99.90;;;;;;4822521;29;20653;-68
2022/06/27 07:54:27;;;;;;;5.15;3.10;;;18.20;99.90;;;;;;4822776;29;20043;-66
2022/06/27 07:56:55;;;;;;;3.33;2.88;;;18.20;99.90;;;;;;4822523;29;20058;-67
2022/06/27 07:59:22;;;;;;;4.25;3.15;;;18.20;99.90;;;;;;4806552;29;20553;-67
2022/06/27 08:01:48;;;;;;;4.32;3.22;;;18.20;99.90;;;;;;4805333;29;20050;-66
2022/06/27 08:04:15;;;;;;;3.78;2.70;;;18.20;99.90;;;;;;4806691;29;20055;-66
2022/06/27 08:06:42;;;;;;;4.18;3.03;;;18.20;99.90;;;;;;4806320;29;20097;-67
2022/06/27 08:09:09;;;;;;;4.40;3.10;;;18.20;99.90;;;;;;4822671;29;20245;-66
2022/06/27 08:11:41;;;;;;;3.95;3.10;;;18.20;99.90;;;;;;4822702;29;20412;-67
2022/06/27 08:14:16;;;;;;;4.93;3.20;;;18.10;99.90;;;;;;4805862;29;20474;-66
2022/06/27 08:16:42;;;;;;;4.32;3.50;;;18.20;99.90;;;;;;4822832;29;20450;-67
2022/06/27 08:19:09;;;;;;;6.65;3.20;;;18.20;99.90;;;;;;4822166;29;20050;-66
2022/06/27 08:21:37;;;;;;;3.90;3.30;;;18.20;99.90;;;;;;4822664;29;20051;-65
2022/06/27 08:24:05;;;;;;;5.68;3.40;;;18.20;99.90;;;;;;4806018;29;20061;-66
2022/06/27 08:26:31;;;;;;;6.28;3.80;;;18.20;99.90;;;;;;4822599;29;20413;-66
2022/06/27 08:28:59;;;;;;;5.40;3.30;;;18.20;99.90;;;;;;4805590;29;20518;-68
2022/06/27 08:31:26;;;;;;;5.55;3.67;;;18.30;99.90;;;;;;4791534;29;20083;-68
2022/06/27 08:34:00;;;;;;;4.78;3.35;;;18.30;99.90;;;;;;4822532;29;20141;-67
2022/06/27 08:36:30;;;;;;;4.30;3.13;;;18.30;99.90;;;;;;4809742;29;20102;-67
2022/06/27 08:38:58;;;;;;;5.25;3.50;;;18.30;99.90;;;;;;4794224;29;20054;-67
2022/06/27 08:41:25;;;;;;;4.05;3.55;;;18.40;99.90;;;;;;4779647;29;20054;-66
2022/06/27 08:43:58;;;;;;;5.70;3.40;;;18.50;99.90;;;;;;4824250;29;20061;-68
2022/06/27 08:46:24;;;;;;;5.05;3.55;;;18.50;99.90;;;;;;4794305;29;20746;-66
2022/06/27 08:48:50;;;;;;;5.55;3.42;;;18.60;99.90;;;;;;4825222;29;20065;-67
2022/06/27 08:51:18;;;;;;;4.70;3.42;;;18.60;99.90;;;;;;4794503;29;20054;-67
2022/06/27 08:53:44;;;;;;;3.92;3.20;;;18.60;99.90;;;;;;4809375;29;20047;-65
2022/06/27 08:56:14;;;;;;;3.55;3.15;;;18.70;99.90;;;;;;4824988;29;20046;-67
2022/06/27 08:58:42;;;;;;;5.13;3.60;;;18.70;99.90;;;;;;4809393;29;20050;-67
2022/06/27 09:01:09;;;;;;;5.20;3.28;;;18.70;99.90;;;;;;4825081;29;20054;-66
2022/06/27 09:03:35;;;;;;;4.25;2.97;;;18.80;99.90;;;;;;4809250;29;20389;-67
2022/06/27 09:06:08;;;;;;;4.10;3.13;;;18.80;99.90;;;;;;4809032;29;20058;-66
2022/06/27 09:08:52;;;;;;;3.92;3.25;;;18.80;99.90;;;;;;4793962;29;20050;-66
2022/06/27 09:11:36;;;;;;;4.43;3.17;;;18.90;99.90;;;;;;4825576;29;20181;-65
2022/06/27 09:14:03;;;;;;;;;;;18.90;99.90;;;;;;4808996;29;20062;-66
2022/06/27 09:16:29;;;;;;;4.50;3.47;;;19.00;99.90;;;;;;4825014;29;20311;-67
2022/06/27 09:18:55;;;;;;;4.88;3.67;;;19.10;99.90;;;;;;4808473;29;20050;-66
2022/06/27 09:21:22;;;;;;;4.82;3.67;;;19.20;99.90;;;;;;4793845;29;20057;-66
2022/06/27 09:23:53;;;;;;;5.30;3.92;;;19.20;99.90;;;;;;4808878;29;20390;-66
2022/06/27 09:26:31;;;;;;;5.18;3.83;;;19.40;99.90;;;;;;4808438;29;20485;-67
2022/06/27 09:29:07;;;;;;;6.55;3.78;;;19.40;99.90;;;;;;4805039;29;20062;-67
2022/06/27 09:31:45;;;;;;;5.63;4.05;;;19.50;99.90;;;;;;4805704;29;20055;-65
2022/06/27 09:34:15;;;;;;;5.90;4.20;;;19.60;99.90;;;;;;4805487;29;20094;-66
2022/06/27 09:36:49;;;;;;;6.25;3.88;;;19.70;99.90;;;;;;4806595;29;20451;-66
2022/06/27 09:39:19;;;;;;;6.63;4.00;;;19.60;99.90;;;;;;4805110;29;20535;-68
2022/06/27 09:41:50;;;;;;;5.18;3.90;;;19.70;99.90;;;;;;4790688;29;20058;-66
2022/06/27 09:44:22;;;;;;;5.45;3.35;;;19.70;99.90;;;;;;4804677;29;20045;-69
2022/06/27 09:46:58;;;;;;;3.60;3.05;;;19.60;99.90;;;;;;4804085;29;20051;-66
2022/06/27 09:49:26;;;;;;;5.82;3.50;;;19.50;99.90;;;;;;4805256;29;20061;-65
2022/06/27 09:51:55;;;;;;;4.32;3.35;;;19.50;99.90;;;;;;4804687;29;20217;-65
2022/06/27 09:54:22;;;;;;;5.18;3.85;;;19.40;99.90;;;;;;4790063;29;20054;-66
2022/06/27 09:56:48;;;;;;;5.22;3.80;;;19.40;99.90;;;;;;4804651;29;20562;-65
2022/06/27 09:59:14;;;;;;;6.30;3.70;;;19.40;99.90;;;;;;4789621;29;20054;-65
2022/06/27 10:01:42;;;;;;;5.45;4.00;;;19.30;99.90;;;;;;4804956;29;20082;-65
2022/06/27 10:04:09;;;;;;;7.63;3.47;;;19.40;99.90;;;;;;4804403;29;20142;-64
2022/06/27 10:06:41;;;;;;;4.80;3.50;;;19.40;99.90;;;;;;4802722;29;20051;-67
2022/06/27 10:09:08;;;;;;;7.18;4.38;;;19.40;99.90;;;;;;4804689;29;20050;-64
2022/06/27 10:11:38;;;;;;;5.28;3.90;;;19.50;99.90;;;;;;4800747;29;20676;-65
2022/06/27 10:14:21;;;;;;;8.45;4.18;;;19.60;99.90;;;;;;4802324;29;20046;-67
2022/06/27 10:16:55;;;;;;;8.52;4.88;;;19.60;99.90;;;;;;4806195;29;20050;-65
2022/06/27 10:19:23;;;;;;;4.68;4.03;;;19.60;99.90;;;;;;4805531;29;20134;-66
2022/06/27 10:21:49;;;;;;;5.45;4.72;;;19.60;99.90;;;;;;4805996;29;20143;-64
2022/06/27 10:24:28;;;;;;;7.32;5.03;;;19.70;99.90;;;;;;4805519;29;20512;-67
2022/06/27 10:26:56;;;;;;;4.82;4.13;;;19.60;99.90;;;;;;4802814;29;20592;-64
2022/06/27 10:29:30;;;;;;;5.93;4.97;;;19.70;99.90;;;;;;4814900;29;20062;-65
2022/06/27 10:31:57;;;;;;;7.20;5.18;;;19.70;99.90;;;;;;4818250;29;20515;-65
2022/06/27 10:34:38;;;;;;;8.70;5.05;;;19.70;99.90;;;;;;4818578;29;20591;-65
2022/06/27 10:37:24;;;;;;;5.63;5.03;;;19.70;99.90;;;;;;4821299;29;20057;-66
2022/06/27 10:40:19;;;;;;;7.53;5.63;;;19.80;99.90;;;;;;4822679;29;20054;-65
2022/06/27 10:42:48;;;;;;;7.65;5.30;;;19.70;99.90;;;;;;4810361;29;20058;-68
2022/06/27 10:45:20;;;;;;;7.47;5.43;;;19.80;99.90;;;;;;4806522;29;20054;-65
2022/06/27 10:48:26;;;;;;;6.47;4.85;;;19.90;99.90;;;;;;4791479;29;20054;-65
2022/06/27 10:50:52;;;;;;;6.18;5.00;;;20.00;99.90;;;;;;4818466;29;20066;-66
2022/06/27 10:53:23;;;;;;;8.43;4.88;;;20.00;99.90;;;;;;4821518;29;20054;-66
2022/06/27 10:55:49;;;;;;;8.55;4.88;;;20.00;99.90;;;;;;4820464;29;20401;-64
2022/06/27 10:58:29;;;;;;;6.72;4.70;;;20.10;99.90;;;;;;4805115;29;20060;-65
2022/06/27 11:01:14;;;;;;;7.72;4.13;;;20.10;99.90;;;;;;4823341;29;20087;-65
2022/06/27 11:03:40;;;;;;;5.90;4.15;;;20.10;99.90;;;;;;4819698;29;20090;-65
2022/06/27 11:06:06;;;;;;;5.28;4.07;;;20.10;99.90;;;;;;4822888;29;20089;-71
2022/06/27 11:08:34;;;;;;;5.55;4.05;;;20.20;99.90;;;;;;4823278;29;20519;-67
2022/06/27 11:11:00;;;;;;;5.72;3.95;;;20.30;99.90;;;;;;4791874;29;20050;-66
2022/06/27 11:13:55;;;;;;;4.55;3.53;;;20.40;99.90;;;;;;4790677;29;20046;-68
2022/06/27 11:16:23;;;;;;;3.97;3.58;;;20.40;99.90;;;;;;4790113;29;20099;-65
2022/06/27 11:18:53;;;;;;;5.38;3.92;;;20.50;99.90;;;;;;4791870;29;20070;-66
2022/06/27 11:21:20;;;;;;;7.90;4.28;;;20.50;99.90;;;;;;4820145;29;20505;-66
2022/06/27 11:24:09;;;;;;;5.25;4.15;;;20.50;99.90;;;;;;4820133;29;20050;-66
2022/06/27 11:26:43;;;;;;;5.40;3.55;;;20.60;99.90;;;;;;4822658;29;20078;-66
2022/06/27 11:32:10;;;;;;;5.15;3.55;;;20.50;99.90;;;;;;4822098;29;20433;-67
2022/06/27 11:34:39;;;;;;;4.78;3.42;;;20.50;99.90;;;;;;4806656;29;20053;-65
2022/06/27 11:37:13;;;;;;;4.13;3.35;;;20.50;99.90;;;;;;4822851;29;20158;-66
2022/06/27 11:39:39;;;;;;;5.22;3.00;;;20.40;99.90;;;;;;4823190;29;20054;-67
2022/06/27 11:42:10;;;;;;;6.53;3.45;;;20.40;99.90;;;;;;4806371;29;20399;-66
2022/06/27 11:45:13;;;;;;;4.78;3.30;;;20.40;99.90;;;;;;4807105;29;20370;-65
2022/06/27 11:47:42;;;;;;;4.47;3.38;;;20.40;99.90;;;;;;4748551;30;20268;-62
2022/06/27 11:50:11;;;;;;;4.45;3.17;;;20.30;99.90;;;;;;4792218;29;20107;-61
2022/06/27 11:52:42;;;;;;;6.18;3.90;;;20.30;99.90;;;;;;4823113;29;20110;-59
2022/06/27 11:55:16;;;;;;;5.80;3.47;;;20.30;99.90;;;;;;4804399;29;20054;-60
2022/06/27 11:57:50;;;;;;;5.03;3.20;;;20.30;99.90;;;;;;4806870;29;20106;-59
2022/06/27 12:00:24;;;;;;;6.75;2.85;;;20.30;99.90;;;;;;4816696;29;20055;-63
2022/06/27 12:03:09;;;;;;;6.23;3.40;;;20.20;99.90;;;;;;4818358;29;20614;-62
2022/06/27 12:05:38;;;;;;;5.80;3.33;;;20.20;99.90;;;;;;4806580;29;20131;-58
2022/06/27 12:08:08;;;;;;;4.15;3.30;;;20.30;99.90;;;;;;4802240;29;20408;-59
2022/06/27 12:13:40;;;;;;;6.50;3.63;;;20.30;99.90;;;;;;4822468;29;20498;-59
2022/06/27 12:16:08;;;;;;;5.28;3.40;;;20.30;99.90;;;;;;4822862;29;20308;-59
2022/06/27 12:18:34;;;;;;;4.38;3.35;;;20.30;99.90;;;;;;4822937;29;20054;-59
2022/06/27 12:21:00;;;;;;;5.10;3.17;;;20.30;99.90;;;;;;4805476;29;20486;-59
2022/06/27 12:23:26;;;;;;;4.53;3.08;;;20.30;99.90;;;;;;4823550;29;20058;-59
2022/06/27 12:25:52;;;;;;;4.68;3.50;;;20.30;99.90;;;;;;4806190;29;20085;-59
2022/06/27 12:28:18;;;;;;;4.43;3.42;;;20.30;99.90;;;;;;4806814;29;20050;-60
2022/06/27 12:30:43;;;;;;;6.22;4.00;;;20.30;99.90;;;;;;4802995;29;20408;-60
2022/06/27 12:33:09;;;;;;;5.57;4.28;;;20.30;99.90;;;;;;4820814;29;20058;-59
2022/06/27 12:35:35;;;;;;;5.30;4.40;;;20.30;99.90;;;;;;4824190;29;20393;-59
2022/06/27 12:38:02;;;;;;;5.85;4.60;;;20.30;99.90;;;;;;4807035;29;20401;-60
2022/06/27 12:40:29;;;;;;;6.75;5.20;;;20.40;99.90;;;;;;4824359;29;20061;-59
2022/06/27 12:42:54;;;;;;;6.88;5.00;;;20.30;99.90;;;;;;4824895;29;20528;-60
2022/06/27 12:45:20;;;;;;;12.25;4.88;;;20.30;99.90;;;;;;4809106;29;20046;-59
2022/06/27 12:47:46;;;;;;;5.50;3.75;;;20.30;99.90;;;;;;4793191;29;20058;-59
2022/06/27 12:50:12;;;;;;;5.93;4.45;;;20.40;99.90;;;;;;4806268;29;20266;-60
2022/06/27 12:52:38;;;;;;;7.03;5.10;;;20.50;99.90;;;;;;4822062;29;20513;-60
2022/06/27 12:55:05;;;;;;;4.80;4.20;;;20.50;99.90;;;;;;4825226;29;20046;-59